Terminal Aerodrome Forecast
Issued by NWS Chicago, IL

Home | Current Version | Previous Version | Text Only | Print | Product List | Glossary Off
Versions: 1 2 3 4 5 6 7 8 9 10 11 12 13 14 15 16 17 18 19 20 21 22 23 24 25

000
FTUS43 KLOT 180530
TAFRFD
TAF
KRFD 180530Z 1806/1906 36004KT 1SM -DZ BR OVC003
      TEMPO 1807/1810 1/2SM FG
     FM181000 36008KT 2SM -RADZ BR OVC004
     FM181400 36016G26KT 3SM RA BR BKN005 OVC015 PROB30 1815/1818
      2SM RASN
     FM181800 34018G29KT P6SM VCSH OVC015
     FM182100 33017G27KT P6SM BKN025=

USA.gov is the U.S. government's official web portal to all federal, state and local government web resources and services.